Terminal Aerodrome Forecast
Issued by NWS

Home | Current Version | Previous Version | Text Only | Print | Product List | Glossary On
Versions: 1 2 3 4 5 6 7 8 9 10 11 12 13
000
FTUS45 KRIW 202300
TAFCOD
TAF
KCOD 202320Z 2100/2124 14008KT P6SM SKC
     FM210200 22009KT P6SM FEW150
     FM211000 22007KT P6SM SCT070 BKN130
     FM211500 21007KT P6SM VCSH SCT040 BKN080
     FM212200 25015G22KT P6SM VCSH SCT040 BKN080
      AMD LTD TO CLD VIS AND WIND=

USA.gov is the U.S. government's official web portal to all federal, state and local government web resources and services.